sensor_id;sensor_type;location;lat;lon;timestamp;temperature;humidity
40151;DHT22;25866;52.420;10.640;2023-04-15T00:02:23;7.30;99.90
40151;DHT22;25866;52.420;10.640;2023-04-15T00:04:49;7.30;99.90
40151;DHT22;25866;52.420;10.640;2023-04-15T00:07:15;7.30;99.90
40151;DHT22;25866;52.420;10.640;2023-04-15T00:09:42;7.30;99.90
40151;DHT22;25866;52.420;10.640;2023-04-15T00:12:10;7.40;99.90
40151;DHT22;25866;52.420;10.640;2023-04-15T00:14:35;7.40;99.90
40151;DHT22;25866;52.420;10.640;2023-04-15T00:17:02;7.30;99.90
40151;DHT22;25866;52.420;10.640;2023-04-15T00:19:29;7.30;99.90
40151;DHT22;25866;52.420;10.640;2023-04-15T00:21:55;7.30;99.90
40151;DHT22;25866;52.420;10.640;2023-04-15T00:24:22;7.30;99.90
40151;DHT22;25866;52.420;10.640;2023-04-15T00:26:48;7.20;99.90
40151;DHT22;25866;52.420;10.640;2023-04-15T00:29:13;7.30;99.90
40151;DHT22;25866;52.420;10.640;2023-04-15T00:31:40;7.20;99.90
40151;DHT22;25866;52.420;10.640;2023-04-15T00:34:06;7.30;99.90
40151;DHT22;25866;52.420;10.640;2023-04-15T00:36:32;7.20;99.90
40151;DHT22;25866;52.420;10.640;2023-04-15T00:38:59;7.20;99.90
40151;DHT22;25866;52.420;10.640;2023-04-15T00:41:25;7.30;99.90
40151;DHT22;25866;52.420;10.640;2023-04-15T00:43:51;7.30;99.90
40151;DHT22;25866;52.420;10.640;2023-04-15T00:46:18;7.20;99.90
40151;DHT22;25866;52.420;10.640;2023-04-15T00:48:46;7.20;99.90
40151;DHT22;25866;52.420;10.640;2023-04-15T00:51:12;7.20;99.90
40151;DHT22;25866;52.420;10.640;2023-04-15T00:53:38;7.10;99.90
40151;DHT22;25866;52.420;10.640;2023-04-15T00:56:05;7.10;99.90
40151;DHT22;25866;52.420;10.640;2023-04-15T00:58:31;7.10;99.90
40151;DHT22;25866;52.420;10.640;2023-04-15T01:00:57;7.10;99.90
40151;DHT22;25866;52.420;10.640;2023-04-15T01:03:24;7.10;99.90
40151;DHT22;25866;52.420;10.640;2023-04-15T01:05:50;7.10;99.90
40151;DHT22;25866;52.420;10.640;2023-04-15T01:08:29;7.10;99.90
40151;DHT22;25866;52.420;10.640;2023-04-15T01:11:00;7.10;99.90
40151;DHT22;25866;52.420;10.640;2023-04-15T01:13:28;7.10;99.90
40151;DHT22;25866;52.420;10.640;2023-04-15T01:15:56;7.10;99.90
40151;DHT22;25866;52.420;10.640;2023-04-15T01:18:22;7.00;99.90
40151;DHT22;25866;52.420;10.640;2023-04-15T01:20:48;7.10;99.90
40151;DHT22;25866;52.420;10.640;2023-04-15T01:23:14;7.00;99.90
40151;DHT22;25866;52.420;10.640;2023-04-15T01:25:42;7.10;99.90
40151;DHT22;25866;52.420;10.640;2023-04-15T01:28:08;7.10;99.90
40151;DHT22;25866;52.420;10.640;2023-04-15T01:30:35;7.10;99.90
40151;DHT22;25866;52.420;10.640;2023-04-15T01:33:01;7.10;99.90
40151;DHT22;25866;52.420;10.640;2023-04-15T01:35:27;7.10;99.90
40151;DHT22;25866;52.420;10.640;2023-04-15T01:37:53;7.10;99.90
40151;DHT22;25866;52.420;10.640;2023-04-15T01:40:20;7.10;99.90
40151;DHT22;25866;52.420;10.640;2023-04-15T01:42:47;7.10;99.90
40151;DHT22;25866;52.420;10.640;2023-04-15T01:45:12;7.10;99.90
40151;DHT22;25866;52.420;10.640;2023-04-15T01:47:38;7.10;99.90
40151;DHT22;25866;52.420;10.640;2023-04-15T01:50:05;7.10;99.90
40151;DHT22;25866;52.420;10.640;2023-04-15T01:52:31;7.00;99.90
40151;DHT22;25866;52.420;10.640;2023-04-15T01:54:57;7.00;99.90
40151;DHT22;25866;52.420;10.640;2023-04-15T01:57:22;7.10;99.90
40151;DHT22;25866;52.420;10.640;2023-04-15T01:59:48;7.10;99.90
40151;DHT22;25866;52.420;10.640;2023-04-15T02:02:14;7.10;99.90
40151;DHT22;25866;52.420;10.640;2023-04-15T02:04:39;7.10;99.90
40151;DHT22;25866;52.420;10.640;2023-04-15T02:07:05;7.10;99.90
40151;DHT22;25866;52.420;10.640;2023-04-15T02:09:31;7.00;99.90
40151;DHT22;25866;52.420;10.640;2023-04-15T02:11:57;7.00;99.90
40151;DHT22;25866;52.420;10.640;2023-04-15T02:14:23;6.90;99.90
40151;DHT22;25866;52.420;10.640;2023-04-15T02:16:48;7.00;99.90
40151;DHT22;25866;52.420;10.640;2023-04-15T02:19:14;7.00;99.90
40151;DHT22;25866;52.420;10.640;2023-04-15T02:21:40;6.90;99.90
40151;DHT22;25866;52.420;10.640;2023-04-15T02:24:06;6.90;99.90
40151;DHT22;25866;52.420;10.640;2023-04-15T02:26:31;6.90;99.90
40151;DHT22;25866;52.420;10.640;2023-04-15T02:28:58;6.90;99.90
40151;DHT22;25866;52.420;10.640;2023-04-15T02:31:24;6.90;99.90
40151;DHT22;25866;52.420;10.640;2023-04-15T02:33:50;6.90;99.90
40151;DHT22;25866;52.420;10.640;2023-04-15T02:36:16;6.90;99.90
40151;DHT22;25866;52.420;10.640;2023-04-15T02:38:42;6.90;99.90
40151;DHT22;25866;52.420;10.640;2023-04-15T02:41:11;6.90;99.90
40151;DHT22;25866;52.420;10.640;2023-04-15T02:43:37;6.90;99.90
40151;DHT22;25866;52.420;10.640;2023-04-15T02:46:04;6.90;99.90
40151;DHT22;25866;52.420;10.640;2023-04-15T02:48:30;7.00;99.90
40151;DHT22;25866;52.420;10.640;2023-04-15T02:51:12;7.00;99.90
40151;DHT22;25866;52.420;10.640;2023-04-15T02:53:38;7.00;99.90
40151;DHT22;25866;52.420;10.640;2023-04-15T02:56:04;7.00;99.90
40151;DHT22;25866;52.420;10.640;2023-04-15T02:58:31;7.00;99.90
40151;DHT22;25866;52.420;10.640;2023-04-15T03:00:56;7.00;99.90
40151;DHT22;25866;52.420;10.640;2023-04-15T03:03:22;7.00;99.90
40151;DHT22;25866;52.420;10.640;2023-04-15T03:05:48;7.00;99.90
40151;DHT22;25866;52.420;10.640;2023-04-15T03:08:13;6.90;99.90
40151;DHT22;25866;52.420;10.640;2023-04-15T03:10:39;7.00;99.90
40151;DHT22;25866;52.420;10.640;2023-04-15T03:13:05;7.00;99.90
40151;DHT22;25866;52.420;10.640;2023-04-15T03:15:31;7.00;99.90
40151;DHT22;25866;52.420;10.640;2023-04-15T03:17:57;7.00;99.90
40151;DHT22;25866;52.420;10.640;2023-04-15T03:20:23;6.90;99.90
40151;DHT22;25866;52.420;10.640;2023-04-15T03:22:49;6.90;99.90
40151;DHT22;25866;52.420;10.640;2023-04-15T03:25:14;7.00;99.90
40151;DHT22;25866;52.420;10.640;2023-04-15T03:27:40;7.00;99.90
40151;DHT22;25866;52.420;10.640;2023-04-15T03:30:07;7.00;99.90
40151;DHT22;25866;52.420;10.640;2023-04-15T03:32:33;7.00;99.90
40151;DHT22;25866;52.420;10.640;2023-04-15T03:34:59;7.00;99.90
40151;DHT22;25866;52.420;10.640;2023-04-15T03:37:24;7.10;99.90
40151;DHT22;25866;52.420;10.640;2023-04-15T03:39:50;7.10;99.90
40151;DHT22;25866;52.420;10.640;2023-04-15T03:42:16;7.00;99.90
40151;DHT22;25866;52.420;10.640;2023-04-15T03:44:42;7.00;99.90
40151;DHT22;25866;52.420;10.640;2023-04-15T03:47:07;7.10;99.90
40151;DHT22;25866;52.420;10.640;2023-04-15T03:49:33;7.10;99.90
40151;DHT22;25866;52.420;10.640;2023-04-15T03:51:59;7.10;99.90
40151;DHT22;25866;52.420;10.640;2023-04-15T03:54:24;7.00;99.90
40151;DHT22;25866;52.420;10.640;2023-04-15T03:56:50;7.00;99.90
40151;DHT22;25866;52.420;10.640;2023-04-15T03:59:16;7.10;99.90
40151;DHT22;25866;52.420;10.640;2023-04-15T04:01:41;7.10;99.90
40151;DHT22;25866;52.420;10.640;2023-04-15T04:04:07;7.10;99.90
40151;DHT22;25866;52.420;10.640;2023-04-15T04:06:33;7.10;99.90
40151;DHT22;25866;52.420;10.640;2023-04-15T04:08:59;7.10;99.90
40151;DHT22;25866;52.420;10.640;2023-04-15T04:11:26;7.10;99.90
40151;DHT22;25866;52.420;10.640;2023-04-15T04:13:52;7.10;99.90
40151;DHT22;25866;52.420;10.640;2023-04-15T04:16:18;7.10;99.90
40151;DHT22;25866;52.420;10.640;2023-04-15T04:18:44;7.10;99.90
40151;DHT22;25866;52.420;10.640;2023-04-15T04:21:10;7.20;99.90
40151;DHT22;25866;52.420;10.640;2023-04-15T04:23:36;7.10;99.90
40151;DHT22;25866;52.420;10.640;2023-04-15T04:26:02;7.20;99.90
40151;DHT22;25866;52.420;10.640;2023-04-15T04:28:27;7.10;99.90
40151;DHT22;25866;52.420;10.640;2023-04-15T04:30:53;7.10;99.90
40151;DHT22;25866;52.420;10.640;2023-04-15T04:33:19;7.20;99.90
40151;DHT22;25866;52.420;10.640;2023-04-15T04:35:44;7.10;99.90
40151;DHT22;25866;52.420;10.640;2023-04-15T04:38:10;7.10;99.90
40151;DHT22;25866;52.420;10.640;2023-04-15T04:40:36;7.10;99.90
40151;DHT22;25866;52.420;10.640;2023-04-15T04:43:02;7.10;99.90
40151;DHT22;25866;52.420;10.640;2023-04-15T04:45:27;7.20;99.90
40151;DHT22;25866;52.420;10.640;2023-04-15T04:47:53;7.10;99.90
40151;DHT22;25866;52.420;10.640;2023-04-15T04:50:19;7.10;99.90
40151;DHT22;25866;52.420;10.640;2023-04-15T04:52:44;7.20;99.90
40151;DHT22;25866;52.420;10.640;2023-04-15T04:55:10;7.20;99.90
40151;DHT22;25866;52.420;10.640;2023-04-15T04:57:36;7.10;99.90
40151;DHT22;25866;52.420;10.640;2023-04-15T05:00:05;7.10;99.90
40151;DHT22;25866;52.420;10.640;2023-04-15T05:02:31;7.10;99.90
40151;DHT22;25866;52.420;10.640;2023-04-15T05:04:57;7.10;99.90
40151;DHT22;25866;52.420;10.640;2023-04-15T05:07:22;7.10;99.90
40151;DHT22;25866;52.420;10.640;2023-04-15T05:09:48;7.10;99.90
40151;DHT22;25866;52.420;10.640;2023-04-15T05:12:14;7.10;99.90
40151;DHT22;25866;52.420;10.640;2023-04-15T05:14:40;7.10;99.90
40151;DHT22;25866;52.420;10.640;2023-04-15T05:17:07;7.00;99.90
40151;DHT22;25866;52.420;10.640;2023-04-15T05:19:33;7.00;99.90
40151;DHT22;25866;52.420;10.640;2023-04-15T05:21:59;7.10;99.90
40151;DHT22;25866;52.420;10.640;2023-04-15T05:24:25;7.00;99.90
40151;DHT22;25866;52.420;10.640;2023-04-15T05:26:51;7.00;99.90
40151;DHT22;25866;52.420;10.640;2023-04-15T05:29:17;7.00;99.90
40151;DHT22;25866;52.420;10.640;2023-04-15T05:31:43;7.10;99.90
40151;DHT22;25866;52.420;10.640;2023-04-15T05:34:09;7.10;99.90
40151;DHT22;25866;52.420;10.640;2023-04-15T05:36:36;7.10;99.90
40151;DHT22;25866;52.420;10.640;2023-04-15T05:39:02;7.00;99.90
40151;DHT22;25866;52.420;10.640;2023-04-15T05:41:28;7.00;99.90
40151;DHT22;25866;52.420;10.640;2023-04-15T05:43:54;7.10;99.90
40151;DHT22;25866;52.420;10.640;2023-04-15T05:46:20;7.10;99.90
40151;DHT22;25866;52.420;10.640;2023-04-15T05:48:47;7.10;99.90
40151;DHT22;25866;52.420;10.640;2023-04-15T05:51:12;7.20;99.90
40151;DHT22;25866;52.420;10.640;2023-04-15T05:53:38;7.10;99.90
40151;DHT22;25866;52.420;10.640;2023-04-15T05:56:06;7.10;99.90
40151;DHT22;25866;52.420;10.640;2023-04-15T05:58:32;7.10;99.90
40151;DHT22;25866;52.420;10.640;2023-04-15T06:00:58;7.20;99.90
40151;DHT22;25866;52.420;10.640;2023-04-15T06:03:23;7.20;99.90
40151;DHT22;25866;52.420;10.640;2023-04-15T06:05:49;7.20;99.90
40151;DHT22;25866;52.420;10.640;2023-04-15T06:08:15;7.10;99.90
40151;DHT22;25866;52.420;10.640;2023-04-15T06:10:41;7.10;99.90
40151;DHT22;25866;52.420;10.640;2023-04-15T06:13:07;7.20;99.90
40151;DHT22;25866;52.420;10.640;2023-04-15T06:15:33;7.20;99.90
40151;DHT22;25866;52.420;10.640;2023-04-15T06:17:58;7.20;99.90
40151;DHT22;25866;52.420;10.640;2023-04-15T06:20:24;7.20;99.90
40151;DHT22;25866;52.420;10.640;2023-04-15T06:22:51;7.20;99.90
40151;DHT22;25866;52.420;10.640;2023-04-15T06:25:17;7.30;99.90
40151;DHT22;25866;52.420;10.640;2023-04-15T06:27:42;7.30;99.90
40151;DHT22;25866;52.420;10.640;2023-04-15T06:30:08;7.30;99.90
40151;DHT22;25866;52.420;10.640;2023-04-15T06:32:34;7.30;99.90
40151;DHT22;25866;52.420;10.640;2023-04-15T06:35:00;7.30;99.90
40151;DHT22;25866;52.420;10.640;2023-04-15T06:37:27;7.30;99.90
40151;DHT22;25866;52.420;10.640;2023-04-15T06:39:52;7.30;99.90
40151;DHT22;25866;52.420;10.640;2023-04-15T06:42:18;7.30;99.90
40151;DHT22;25866;52.420;10.640;2023-04-15T06:44:44;7.20;99.90
40151;DHT22;25866;52.420;10.640;2023-04-15T06:47:09;7.30;99.90
40151;DHT22;25866;52.420;10.640;2023-04-15T06:49:37;7.30;99.90
40151;DHT22;25866;52.420;10.640;2023-04-15T06:52:04;7.30;99.90
40151;DHT22;25866;52.420;10.640;2023-04-15T06:54:30;7.30;99.90
40151;DHT22;25866;52.420;10.640;2023-04-15T06:56:56;7.30;99.90
40151;DHT22;25866;52.420;10.640;2023-04-15T06:59:22;7.40;99.90
40151;DHT22;25866;52.420;10.640;2023-04-15T07:01:47;7.40;99.90
40151;DHT22;25866;52.420;10.640;2023-04-15T07:04:13;7.40;99.90
40151;DHT22;25866;52.420;10.640;2023-04-15T07:06:39;7.40;99.90
40151;DHT22;25866;52.420;10.640;2023-04-15T07:09:05;7.40;99.90
40151;DHT22;25866;52.420;10.640;2023-04-15T07:11:31;7.40;99.90
40151;DHT22;25866;52.420;10.640;2023-04-15T07:13:57;7.50;99.90
40151;DHT22;25866;52.420;10.640;2023-04-15T07:16:23;7.60;99.90
40151;DHT22;25866;52.420;10.640;2023-04-15T07:18:49;7.60;99.90
40151;DHT22;25866;52.420;10.640;2023-04-15T07:21:14;7.60;99.90
40151;DHT22;25866;52.420;10.640;2023-04-15T07:23:41;7.60;99.90
40151;DHT22;25866;52.420;10.640;2023-04-15T07:26:07;7.60;99.90
40151;DHT22;25866;52.420;10.640;2023-04-15T07:28:33;7.60;99.90
40151;DHT22;25866;52.420;10.640;2023-04-15T07:30:59;7.60;99.90
40151;DHT22;25866;52.420;10.640;2023-04-15T07:33:25;7.60;99.90
40151;DHT22;25866;52.420;10.640;2023-04-15T07:35:51;7.60;99.90
40151;DHT22;25866;52.420;10.640;2023-04-15T07:38:16;7.70;99.90
40151;DHT22;25866;52.420;10.640;2023-04-15T07:40:42;7.70;99.90
40151;DHT22;25866;52.420;10.640;2023-04-15T07:43:08;7.70;99.90
40151;DHT22;25866;52.420;10.640;2023-04-15T07:45:34;7.80;99.90
40151;DHT22;25866;52.420;10.640;2023-04-15T07:48:01;7.80;99.90
40151;DHT22;25866;52.420;10.640;2023-04-15T07:50:27;7.70;99.90
40151;DHT22;25866;52.420;10.640;2023-04-15T07:52:53;7.80;99.90
40151;DHT22;25866;52.420;10.640;2023-04-15T07:55:19;7.80;99.90
40151;DHT22;25866;52.420;10.640;2023-04-15T07:57:47;7.80;99.90
40151;DHT22;25866;52.420;10.640;2023-04-15T08:00:13;7.80;99.90
40151;DHT22;25866;52.420;10.640;2023-04-15T08:02:39;7.90;99.90
40151;DHT22;25866;52.420;10.640;2023-04-15T08:05:06;7.90;99.90
40151;DHT22;25866;52.420;10.640;2023-04-15T08:07:32;8.00;99.90
40151;DHT22;25866;52.420;10.640;2023-04-15T08:09:58;8.00;99.90
40151;DHT22;25866;52.420;10.640;2023-04-15T08:12:23;8.00;99.90
40151;DHT22;25866;52.420;10.640;2023-04-15T08:14:50;8.00;99.90
40151;DHT22;25866;52.420;10.640;2023-04-15T08:17:16;8.00;99.90
40151;DHT22;25866;52.420;10.640;2023-04-15T08:19:42;8.10;99.90
40151;DHT22;25866;52.420;10.640;2023-04-15T08:22:07;8.10;99.90
40151;DHT22;25866;52.420;10.640;2023-04-15T08:24:34;8.10;99.90
40151;DHT22;25866;52.420;10.640;2023-04-15T08:27:00;8.10;99.90
40151;DHT22;25866;52.420;10.640;2023-04-15T08:29:28;8.10;99.90
40151;DHT22;25866;52.420;10.640;2023-04-15T08:31:54;8.20;99.90
40151;DHT22;25866;52.420;10.640;2023-04-15T08:34:20;8.20;99.90
40151;DHT22;25866;52.420;10.640;2023-04-15T08:36:46;8.20;99.90
40151;DHT22;25866;52.420;10.640;2023-04-15T08:39:11;8.30;99.90
40151;DHT22;25866;52.420;10.640;2023-04-15T08:41:45;8.30;99.90
40151;DHT22;25866;52.420;10.640;2023-04-15T08:44:14;8.20;99.90
40151;DHT22;25866;52.420;10.640;2023-04-15T08:46:41;8.30;99.90
40151;DHT22;25866;52.420;10.640;2023-04-15T08:49:10;8.30;99.90
40151;DHT22;25866;52.420;10.640;2023-04-15T08:51:40;8.30;99.90
40151;DHT22;25866;52.420;10.640;2023-04-15T08:54:07;8.30;99.90
40151;DHT22;25866;52.420;10.640;2023-04-15T08:56:33;8.30;99.90
40151;DHT22;25866;52.420;10.640;2023-04-15T08:59:00;8.30;99.90
40151;DHT22;25866;52.420;10.640;2023-04-15T09:01:26;8.40;99.90
40151;DHT22;25866;52.420;10.640;2023-04-15T09:03:52;8.40;99.90
40151;DHT22;25866;52.420;10.640;2023-04-15T09:06:22;8.40;99.90
40151;DHT22;25866;52.420;10.640;2023-04-15T09:08:48;8.40;99.90
40151;DHT22;25866;52.420;10.640;2023-04-15T09:11:15;8.50;99.90
40151;DHT22;25866;52.420;10.640;2023-04-15T09:13:42;8.50;99.90
40151;DHT22;25866;52.420;10.640;2023-04-15T09:16:08;8.40;99.90
40151;DHT22;25866;52.420;10.640;2023-04-15T09:18:35;8.40;99.90
40151;DHT22;25866;52.420;10.640;2023-04-15T09:21:07;8.50;99.90
40151;DHT22;25866;52.420;10.640;2023-04-15T09:23:36;8.60;99.90
40151;DHT22;25866;52.420;10.640;2023-04-15T09:26:03;8.60;99.90
40151;DHT22;25866;52.420;10.640;2023-04-15T09:28:29;8.60;99.90
40151;DHT22;25866;52.420;10.640;2023-04-15T09:30:59;8.60;99.90
40151;DHT22;25866;52.420;10.640;2023-04-15T09:33:27;8.60;99.90
40151;DHT22;25866;52.420;10.640;2023-04-15T09:36:01;8.60;99.90
40151;DHT22;25866;52.420;10.640;2023-04-15T09:38:29;8.50;99.90
40151;DHT22;25866;52.420;10.640;2023-04-15T09:40:55;8.60;99.90
40151;DHT22;25866;52.420;10.640;2023-04-15T09:43:22;8.60;99.90
40151;DHT22;25866;52.420;10.640;2023-04-15T09:45:52;8.60;99.90
40151;DHT22;25866;52.420;10.640;2023-04-15T09:48:21;8.60;99.90
40151;DHT22;25866;52.420;10.640;2023-04-15T09:50:50;8.60;99.90
40151;DHT22;25866;52.420;10.640;2023-04-15T09:53:19;8.60;99.90
40151;DHT22;25866;52.420;10.640;2023-04-15T09:55:50;8.70;99.90
40151;DHT22;25866;52.420;10.640;2023-04-15T09:58:22;8.70;99.90
40151;DHT22;25866;52.420;10.640;2023-04-15T10:00:49;8.70;99.90
40151;DHT22;25866;52.420;10.640;2023-04-15T10:03:28;8.70;99.90
40151;DHT22;25866;52.420;10.640;2023-04-15T10:05:56;8.60;99.90
40151;DHT22;25866;52.420;10.640;2023-04-15T10:08:23;8.70;99.90
40151;DHT22;25866;52.420;10.640;2023-04-15T10:10:50;8.80;99.90
40151;DHT22;25866;52.420;10.640;2023-04-15T10:13:30;8.80;99.90
40151;DHT22;25866;52.420;10.640;2023-04-15T10:16:10;8.90;99.90
40151;DHT22;25866;52.420;10.640;2023-04-15T10:18:42;8.90;99.90
40151;DHT22;25866;52.420;10.640;2023-04-15T10:21:08;8.90;99.90
40151;DHT22;25866;52.420;10.640;2023-04-15T10:23:34;8.80;99.90
40151;DHT22;25866;52.420;10.640;2023-04-15T10:26:02;8.80;99.90
40151;DHT22;25866;52.420;10.640;2023-04-15T10:28:28;8.90;99.90
40151;DHT22;25866;52.420;10.640;2023-04-15T10:30:56;9.00;99.90
40151;DHT22;25866;52.420;10.640;2023-04-15T10:33:23;8.90;99.90
40151;DHT22;25866;52.420;10.640;2023-04-15T10:35:50;8.90;99.90
40151;DHT22;25866;52.420;10.640;2023-04-15T10:38:37;9.00;99.90
40151;DHT22;25866;52.420;10.640;2023-04-15T10:43:53;9.00;99.90
40151;DHT22;25866;52.420;10.640;2023-04-15T10:46:21;8.90;99.90
40151;DHT22;25866;52.420;10.640;2023-04-15T10:48:52;9.00;99.90
40151;DHT22;25866;52.420;10.640;2023-04-15T10:51:29;9.00;99.90
40151;DHT22;25866;52.420;10.640;2023-04-15T10:53:56;9.00;99.90
40151;DHT22;25866;52.420;10.640;2023-04-15T10:56:23;9.00;99.90
40151;DHT22;25866;52.420;10.640;2023-04-15T10:58:49;9.00;99.90
40151;DHT22;25866;52.420;10.640;2023-04-15T11:01:15;9.00;99.90
40151;DHT22;25866;52.420;10.640;2023-04-15T11:03:42;8.90;99.90
40151;DHT22;25866;52.420;10.640;2023-04-15T11:06:08;8.90;99.90
40151;DHT22;25866;52.420;10.640;2023-04-15T11:08:54;9.00;99.90
40151;DHT22;25866;52.420;10.640;2023-04-15T11:11:20;9.00;99.90
40151;DHT22;25866;52.420;10.640;2023-04-15T11:13:48;8.90;99.90
40151;DHT22;25866;52.420;10.640;2023-04-15T11:16:14;8.90;99.90
40151;DHT22;25866;52.420;10.640;2023-04-15T11:18:40;9.00;99.90
40151;DHT22;25866;52.420;10.640;2023-04-15T11:21:07;9.10;99.90
40151;DHT22;25866;52.420;10.640;2023-04-15T11:23:42;9.10;99.90
40151;DHT22;25866;52.420;10.640;2023-04-15T11:26:15;9.10;99.90
40151;DHT22;25866;52.420;10.640;2023-04-15T11:28:45;9.10;99.90
40151;DHT22;25866;52.420;10.640;2023-04-15T11:31:16;9.10;99.90
40151;DHT22;25866;52.420;10.640;2023-04-15T11:34:07;9.00;99.90
40151;DHT22;25866;52.420;10.640;2023-04-15T11:36:32;9.10;99.90
40151;DHT22;25866;52.420;10.640;2023-04-15T11:38:58;9.10;99.90
40151;DHT22;25866;52.420;10.640;2023-04-15T11:41:24;9.10;99.90
40151;DHT22;25866;52.420;10.640;2023-04-15T11:43:50;9.10;99.90
40151;DHT22;25866;52.420;10.640;2023-04-15T11:46:17;9.10;99.90
40151;DHT22;25866;52.420;10.640;2023-04-15T11:48:45;9.10;99.90
40151;DHT22;25866;52.420;10.640;2023-04-15T11:51:12;9.20;99.90
40151;DHT22;25866;52.420;10.640;2023-04-15T11:53:44;9.30;99.90
40151;DHT22;25866;52.420;10.640;2023-04-15T11:56:16;9.30;99.90
40151;DHT22;25866;52.420;10.640;2023-04-15T11:58:43;9.30;99.90
40151;DHT22;25866;52.420;10.640;2023-04-15T12:01:10;9.30;99.90
40151;DHT22;25866;52.420;10.640;2023-04-15T12:03:41;9.30;99.90
40151;DHT22;25866;52.420;10.640;2023-04-15T12:06:19;9.40;99.90
40151;DHT22;25866;52.420;10.640;2023-04-15T12:14:07;9.60;99.90
40151;DHT22;25866;52.420;10.640;2023-04-15T12:16:44;9.70;99.90
40151;DHT22;25866;52.420;10.640;2023-04-15T12:19:12;9.80;99.90
40151;DHT22;25866;52.420;10.640;2023-04-15T12:21:40;9.90;99.90
40151;DHT22;25866;52.420;10.640;2023-04-15T12:24:08;10.00;99.90
40151;DHT22;25866;52.420;10.640;2023-04-15T12:26:52;10.10;99.90
40151;DHT22;25866;52.420;10.640;2023-04-15T12:29:19;10.20;99.90
40151;DHT22;25866;52.420;10.640;2023-04-15T12:32:28;10.30;99.90
40151;DHT22;25866;52.420;10.640;2023-04-15T12:34:40;10.40;99.90
40151;DHT22;25866;52.420;10.640;2023-04-15T12:37:08;10.50;99.90
40151;DHT22;25866;52.420;10.640;2023-04-15T12:39:36;10.50;99.90
40151;DHT22;25866;52.420;10.640;2023-04-15T12:42:03;10.40;99.90
40151;DHT22;25866;52.420;10.640;2023-04-15T12:44:30;10.40;99.90
40151;DHT22;25866;52.420;10.640;2023-04-15T12:46:56;10.40;99.90
40151;DHT22;25866;52.420;10.640;2023-04-15T12:49:22;10.40;99.90
40151;DHT22;25866;52.420;10.640;2023-04-15T12:51:50;10.40;99.90
40151;DHT22;25866;52.420;10.640;2023-04-15T12:54:16;10.40;99.90
40151;DHT22;25866;52.420;10.640;2023-04-15T12:56:43;10.40;99.90
40151;DHT22;25866;52.420;10.640;2023-04-15T12:59:10;10.50;99.90
40151;DHT22;25866;52.420;10.640;2023-04-15T13:01:37;10.40;99.90
40151;DHT22;25866;52.420;10.640;2023-04-15T13:04:04;10.50;99.90
40151;DHT22;25866;52.420;10.640;2023-04-15T13:06:30;10.50;99.90
40151;DHT22;25866;52.420;10.640;2023-04-15T13:08:58;10.60;99.90
40151;DHT22;25866;52.420;10.640;2023-04-15T13:11:26;10.60;99.90
40151;DHT22;25866;52.420;10.640;2023-04-15T13:13:54;10.60;99.90
40151;DHT22;25866;52.420;10.640;2023-04-15T13:16:20;10.70;99.90
40151;DHT22;25866;52.420;10.640;2023-04-15T13:18:47;10.70;99.90
40151;DHT22;25866;52.420;10.640;2023-04-15T13:21:13;10.80;99.90
40151;DHT22;25866;52.420;10.640;2023-04-15T13:23:41;10.80;99.90
40151;DHT22;25866;52.420;10.640;2023-04-15T13:26:07;10.90;99.90
40151;DHT22;25866;52.420;10.640;2023-04-15T13:28:33;11.00;99.90
40151;DHT22;25866;52.420;10.640;2023-04-15T13:30:59;11.00;99.90
40151;DHT22;25866;52.420;10.640;2023-04-15T13:33:25;11.10;99.90
40151;DHT22;25866;52.420;10.640;2023-04-15T13:35:51;11.20;99.90
40151;DHT22;25866;52.420;10.640;2023-04-15T13:38:17;11.20;99.90
40151;DHT22;25866;52.420;10.640;2023-04-15T13:40:42;11.20;99.90
40151;DHT22;25866;52.420;10.640;2023-04-15T13:43:08;11.20;99.90
40151;DHT22;25866;52.420;10.640;2023-04-15T13:45:34;11.20;99.90
40151;DHT22;25866;52.420;10.640;2023-04-15T13:48:00;11.30;99.90
40151;DHT22;25866;52.420;10.640;2023-04-15T13:50:27;11.30;99.90
40151;DHT22;25866;52.420;10.640;2023-04-15T13:52:53;11.40;99.90
40151;DHT22;25866;52.420;10.640;2023-04-15T13:55:18;11.30;99.90
40151;DHT22;25866;52.420;10.640;2023-04-15T13:57:44;11.30;99.90
40151;DHT22;25866;52.420;10.640;2023-04-15T14:00:10;11.40;99.90
40151;DHT22;25866;52.420;10.640;2023-04-15T14:02:36;11.40;99.90
40151;DHT22;25866;52.420;10.640;2023-04-15T14:05:02;11.40;99.90
40151;DHT22;25866;52.420;10.640;2023-04-15T14:07:29;11.30;99.90
40151;DHT22;25866;52.420;10.640;2023-04-15T14:09:55;11.20;99.90
40151;DHT22;25866;52.420;10.640;2023-04-15T14:12:21;11.20;99.90
40151;DHT22;25866;52.420;10.640;2023-04-15T14:14:47;11.20;99.90
40151;DHT22;25866;52.420;10.640;2023-04-15T14:17:13;11.30;99.90
40151;DHT22;25866;52.420;10.640;2023-04-15T14:19:38;11.20;99.90
40151;DHT22;25866;52.420;10.640;2023-04-15T14:22:04;11.20;99.90
40151;DHT22;25866;52.420;10.640;2023-04-15T14:24:30;11.20;99.90
40151;DHT22;25866;52.420;10.640;2023-04-15T14:26:57;11.20;99.90
40151;DHT22;25866;52.420;10.640;2023-04-15T14:29:23;11.20;99.90
40151;DHT22;25866;52.420;10.640;2023-04-15T14:31:48;11.20;99.90
40151;DHT22;25866;52.420;10.640;2023-04-15T14:34:15;11.30;99.90
40151;DHT22;25866;52.420;10.640;2023-04-15T14:36:41;11.40;99.90
40151;DHT22;25866;52.420;10.640;2023-04-15T14:39:07;11.40;99.90
40151;DHT22;25866;52.420;10.640;2023-04-15T14:41:33;11.40;99.90
40151;DHT22;25866;52.420;10.640;2023-04-15T14:43:59;11.30;99.90
40151;DHT22;25866;52.420;10.640;2023-04-15T14:46:25;11.30;99.90
40151;DHT22;25866;52.420;10.640;2023-04-15T14:48:51;11.20;99.90
40151;DHT22;25866;52.420;10.640;2023-04-15T14:51:17;11.30;99.90
40151;DHT22;25866;52.420;10.640;2023-04-15T14:53:43;11.30;99.90
40151;DHT22;25866;52.420;10.640;2023-04-15T14:56:09;11.30;99.90
40151;DHT22;25866;52.420;10.640;2023-04-15T14:58:35;11.40;99.90
40151;DHT22;25866;52.420;10.640;2023-04-15T15:01:01;11.40;99.90
40151;DHT22;25866;52.420;10.640;2023-04-15T15:03:28;11.40;99.90
40151;DHT22;25866;52.420;10.640;2023-04-15T15:05:54;11.40;99.90
40151;DHT22;25866;52.420;10.640;2023-04-15T15:08:19;11.40;99.90
40151;DHT22;25866;52.420;10.640;2023-04-15T15:10:45;11.30;99.90
40151;DHT22;25866;52.420;10.640;2023-04-15T15:13:11;11.30;99.90
40151;DHT22;25866;52.420;10.640;2023-04-15T15:15:37;11.40;99.90
40151;DHT22;25866;52.420;10.640;2023-04-15T15:18:03;11.40;99.90
40151;DHT22;25866;52.420;10.640;2023-04-15T15:20:29;11.40;99.90
40151;DHT22;25866;52.420;10.640;2023-04-15T15:22:55;11.40;99.90
40151;DHT22;25866;52.420;10.640;2023-04-15T15:25:21;11.50;99.90
40151;DHT22;25866;52.420;10.640;2023-04-15T15:27:47;11.60;99.90
40151;DHT22;25866;52.420;10.640;2023-04-15T15:30:13;11.60;99.90
40151;DHT22;25866;52.420;10.640;2023-04-15T15:32:40;11.60;99.90
40151;DHT22;25866;52.420;10.640;2023-04-15T15:35:06;11.70;99.90